sensor_id;sensor_type;location;lat;lon;timestamp;pressure;altitude;pressure_sealevel;temperature;humidity
7940;BME280;4015;48.888;9.226;2022-11-03T00:01:45;157378.97;;;8.49;94.32
7940;BME280;4015;48.888;9.226;2022-11-03T00:04:13;157389.16;;;8.53;94.24
7940;BME280;4015;48.888;9.226;2022-11-03T00:06:40;157403.19;;;8.59;94.52
7940;BME280;4015;48.888;9.226;2022-11-03T00:09:08;157378.97;;;8.49;94.67
7940;BME280;4015;48.888;9.226;2022-11-03T00:11:36;157362.41;;;8.43;94.51
7940;BME280;4015;48.888;9.226;2022-11-03T00:14:02;157367.47;;;8.45;94.57
7940;BME280;4015;48.888;9.226;2022-11-03T00:16:27;157382.78;;;8.51;94.12
7940;BME280;4015;48.888;9.226;2022-11-03T00:18:53;157364.94;;;8.44;94.63
7940;BME280;4015;48.888;9.226;2022-11-03T00:21:18;157363.66;;;8.43;94.40
7940;BME280;4015;48.888;9.226;2022-11-03T00:23:44;157350.91;;;8.38;94.49
7940;BME280;4015;48.888;9.226;2022-11-03T00:28:43;157301.13;;;8.18;95.87
7940;BME280;4015;48.888;9.226;2022-11-03T00:33:38;157341.91;;;8.34;95.09
7940;BME280;4015;48.888;9.226;2022-11-03T00:36:05;157317.69;;;8.25;95.11
7940;BME280;4015;48.888;9.226;2022-11-03T00:38:31;157317.69;;;8.25;94.69
7940;BME280;4015;48.888;9.226;2022-11-03T00:40:59;157293.44;;;8.15;95.48
7940;BME280;4015;48.888;9.226;2022-11-03T00:43:25;157276.88;;;8.08;95.84
7940;BME280;4015;48.888;9.226;2022-11-03T00:45:51;157269.25;;;8.05;95.73
7940;BME280;4015;48.888;9.226;2022-11-03T00:48:17;157261.56;;;8.02;95.90
7940;BME280;4015;48.888;9.226;2022-11-03T00:51:18;157253.94;;;7.99;96.28
7940;BME280;4015;48.888;9.226;2022-11-03T00:53:45;157218.19;;;7.85;96.87
7940;BME280;4015;48.888;9.226;2022-11-03T00:56:13;157222.06;;;7.87;96.94
7940;BME280;4015;48.888;9.226;2022-11-03T00:58:39;157199.09;;;7.77;96.69
7940;BME280;4015;48.888;9.226;2022-11-03T01:01:06;157196.53;;;7.76;97.08
7940;BME280;4015;48.888;9.226;2022-11-03T01:03:34;157178.69;;;7.69;98.04
7940;BME280;4015;48.888;9.226;2022-11-03T01:06:01;157185.06;;;7.72;98.02
7940;BME280;4015;48.888;9.226;2022-11-03T01:08:45;157200.34;;;7.78;97.23
7940;BME280;4015;48.888;9.226;2022-11-03T01:11:14;157200.34;;;7.78;96.77
7940;BME280;4015;48.888;9.226;2022-11-03T01:13:58;157213.13;;;7.83;96.25
7940;BME280;4015;48.888;9.226;2022-11-03T01:16:24;157210.56;;;7.82;96.65
7940;BME280;4015;48.888;9.226;2022-11-03T01:18:50;157215.66;;;7.84;96.22
7940;BME280;4015;48.888;9.226;2022-11-03T01:21:16;157225.88;;;7.88;95.98
7940;BME280;4015;48.888;9.226;2022-11-03T01:23:41;157227.16;;;7.89;96.09
7940;BME280;4015;48.888;9.226;2022-11-03T01:26:09;157223.31;;;7.87;96.77
7940;BME280;4015;48.888;9.226;2022-11-03T01:28:36;157256.47;;;8.00;96.42
7940;BME280;4015;48.888;9.226;2022-11-03T01:31:05;157205.47;;;7.80;97.21
7940;BME280;4015;48.888;9.226;2022-11-03T01:33:31;157222.06;;;7.87;96.87
7940;BME280;4015;48.888;9.226;2022-11-03T01:35:56;157228.41;;;7.89;96.92
7940;BME280;4015;48.888;9.226;2022-11-03T01:38:22;157225.88;;;7.88;96.82
7940;BME280;4015;48.888;9.226;2022-11-03T01:40:47;157215.66;;;7.84;96.65
7940;BME280;4015;48.888;9.226;2022-11-03T01:43:21;157157.03;;;7.61;98.21
7940;BME280;4015;48.888;9.226;2022-11-03T01:45:52;157146.81;;;7.56;98.56
7940;BME280;4015;48.888;9.226;2022-11-03T01:48:21;157157.03;;;7.61;98.23
7940;BME280;4015;48.888;9.226;2022-11-03T01:50:47;157134.06;;;7.51;98.81
7940;BME280;4015;48.888;9.226;2022-11-03T01:53:14;157136.59;;;7.52;98.40
7940;BME280;4015;48.888;9.226;2022-11-03T01:55:40;157112.41;;;7.43;98.97
7940;BME280;4015;48.888;9.226;2022-11-03T01:58:10;157114.97;;;7.44;98.83
7940;BME280;4015;48.888;9.226;2022-11-03T02:00:40;157092.00;;;7.35;99.27
7940;BME280;4015;48.888;9.226;2022-11-03T02:03:07;157093.25;;;7.35;99.31
7940;BME280;4015;48.888;9.226;2022-11-03T02:05:33;157088.19;;;7.33;99.44
7940;BME280;4015;48.888;9.226;2022-11-03T02:08:10;157086.91;;;7.33;99.81
7940;BME280;4015;48.888;9.226;2022-11-03T02:10:37;157084.38;;;7.32;99.22
7940;BME280;4015;48.888;9.226;2022-11-03T02:13:11;157100.94;;;7.38;98.87
7940;BME280;4015;48.888;9.226;2022-11-03T02:15:40;157077.97;;;7.29;99.36
7940;BME280;4015;48.888;9.226;2022-11-03T02:18:07;157088.19;;;7.33;99.17
7940;BME280;4015;48.888;9.226;2022-11-03T02:20:34;157086.91;;;7.33;99.27
7940;BME280;4015;48.888;9.226;2022-11-03T02:25:45;157077.97;;;7.29;99.57
7940;BME280;4015;48.888;9.226;2022-11-03T02:28:21;157076.69;;;7.28;99.83
7940;BME280;4015;48.888;9.226;2022-11-03T02:33:42;157127.72;;;7.49;98.79
7940;BME280;4015;48.888;9.226;2022-11-03T02:39:30;157149.38;;;7.57;98.42
7940;BME280;4015;48.888;9.226;2022-11-03T02:41:33;157151.91;;;7.58;98.14
7940;BME280;4015;48.888;9.226;2022-11-03T02:44:00;157137.88;;;7.53;98.06
7940;BME280;4015;48.888;9.226;2022-11-03T02:46:27;157151.91;;;7.58;97.71
7940;BME280;4015;48.888;9.226;2022-11-03T02:48:54;157145.56;;;7.56;97.51
7940;BME280;4015;48.888;9.226;2022-11-03T02:51:22;157144.28;;;7.55;97.90
7940;BME280;4015;48.888;9.226;2022-11-03T02:54:03;157154.44;;;7.60;97.71
7940;BME280;4015;48.888;9.226;2022-11-03T02:56:30;157094.56;;;7.36;98.02
7940;BME280;4015;48.888;9.226;2022-11-03T03:01:35;157103.47;;;7.39;97.76
7940;BME280;4015;48.888;9.226;2022-11-03T03:04:14;157098.38;;;7.37;97.81
7940;BME280;4015;48.888;9.226;2022-11-03T03:06:49;157116.22;;;7.44;97.28
7940;BME280;4015;48.888;9.226;2022-11-03T03:09:20;157089.44;;;7.34;96.50
7940;BME280;4015;48.888;9.226;2022-11-03T03:11:50;157090.72;;;7.34;97.24
7940;BME280;4015;48.888;9.226;2022-11-03T03:14:37;157080.56;;;7.30;97.21
7940;BME280;4015;48.888;9.226;2022-11-03T03:17:12;157077.97;;;7.29;97.17
7940;BME280;4015;48.888;9.226;2022-11-03T03:22:55;157056.31;;;7.20;97.52
7940;BME280;4015;48.888;9.226;2022-11-03T03:25:23;157042.28;;;7.15;97.13
7940;BME280;4015;48.888;9.226;2022-11-03T03:27:54;157010.44;;;7.02;97.91
7940;BME280;4015;48.888;9.226;2022-11-03T03:30:22;157027.00;;;7.09;97.74
7940;BME280;4015;48.888;9.226;2022-11-03T03:32:49;157028.25;;;7.09;97.29
7940;BME280;4015;48.888;9.226;2022-11-03T03:35:22;157025.72;;;7.08;97.30
7940;BME280;4015;48.888;9.226;2022-11-03T03:37:50;157018.09;;;7.05;97.12
7940;BME280;4015;48.888;9.226;2022-11-03T03:40:24;157006.63;;;7.00;96.54
7940;BME280;4015;48.888;9.226;2022-11-03T03:42:51;157005.34;;;7.00;96.98
7940;BME280;4015;48.888;9.226;2022-11-03T03:45:18;156996.41;;;6.96;97.12
7940;BME280;4015;48.888;9.226;2022-11-03T03:47:44;156992.59;;;6.95;97.80
7940;BME280;4015;48.888;9.226;2022-11-03T03:50:10;157002.81;;;6.99;98.15
7940;BME280;4015;48.888;9.226;2022-11-03T03:52:36;157007.88;;;7.01;98.03
7940;BME280;4015;48.888;9.226;2022-11-03T03:55:01;157016.81;;;7.05;98.22
7940;BME280;4015;48.888;9.226;2022-11-03T03:57:29;157020.63;;;7.06;98.14
7940;BME280;4015;48.888;9.226;2022-11-03T03:59:55;157028.25;;;7.09;97.78
7940;BME280;4015;48.888;9.226;2022-11-03T04:02:21;156995.13;;;6.96;98.19
7940;BME280;4015;48.888;9.226;2022-11-03T04:04:46;156986.25;;;6.92;98.51
7940;BME280;4015;48.888;9.226;2022-11-03T04:07:11;156969.69;;;6.86;97.86
7940;BME280;4015;48.888;9.226;2022-11-03T04:09:56;156974.75;;;6.88;97.01
7940;BME280;4015;48.888;9.226;2022-11-03T04:12:21;156973.50;;;6.87;97.26
7940;BME280;4015;48.888;9.226;2022-11-03T04:15:05;156959.47;;;6.82;97.23
7940;BME280;4015;48.888;9.226;2022-11-03T04:17:50;156962.00;;;6.83;97.44
7940;BME280;4015;48.888;9.226;2022-11-03T04:20:34;156969.69;;;6.86;97.47
7940;BME280;4015;48.888;9.226;2022-11-03T04:23:18;156973.50;;;6.87;97.54
7940;BME280;4015;48.888;9.226;2022-11-03T04:25:49;156958.19;;;6.81;97.30
7940;BME280;4015;48.888;9.226;2022-11-03T04:28:16;156940.38;;;6.74;97.27
7940;BME280;4015;48.888;9.226;2022-11-03T04:30:41;156925.06;;;6.68;97.62
7940;BME280;4015;48.888;9.226;2022-11-03T04:33:17;156936.50;;;6.72;98.26
7940;BME280;4015;48.888;9.226;2022-11-03T04:35:45;156932.69;;;6.71;98.26
7940;BME280;4015;48.888;9.226;2022-11-03T04:40:45;156927.63;;;6.69;100.00
7940;BME280;4015;48.888;9.226;2022-11-03T04:43:13;156937.81;;;6.73;99.90
7940;BME280;4015;48.888;9.226;2022-11-03T04:45:39;156955.66;;;6.80;100.00
7940;BME280;4015;48.888;9.226;2022-11-03T04:48:13;156996.41;;;6.96;99.57
7940;BME280;4015;48.888;9.226;2022-11-03T04:50:39;157002.81;;;6.99;100.00
7940;BME280;4015;48.888;9.226;2022-11-03T04:53:11;157025.72;;;7.08;99.19
7940;BME280;4015;48.888;9.226;2022-11-03T04:55:39;157001.53;;;6.98;99.35
7940;BME280;4015;48.888;9.226;2022-11-03T05:00:52;156996.41;;;6.96;99.53
7940;BME280;4015;48.888;9.226;2022-11-03T05:03:26;157007.88;;;7.01;99.01
7940;BME280;4015;48.888;9.226;2022-11-03T05:05:52;156984.97;;;6.92;99.64
7940;BME280;4015;48.888;9.226;2022-11-03T05:08:18;156960.75;;;6.82;99.84
7940;BME280;4015;48.888;9.226;2022-11-03T05:10:45;156993.88;;;6.95;99.45
7940;BME280;4015;48.888;9.226;2022-11-03T05:13:18;156935.25;;;6.72;99.17
7940;BME280;4015;48.888;9.226;2022-11-03T05:15:46;156940.38;;;6.74;99.32
7940;BME280;4015;48.888;9.226;2022-11-03T05:18:21;156919.94;;;6.66;99.08
7940;BME280;4015;48.888;9.226;2022-11-03T05:20:58;156927.63;;;6.69;99.19
7940;BME280;4015;48.888;9.226;2022-11-03T05:23:27;156945.44;;;6.76;98.91
7940;BME280;4015;48.888;9.226;2022-11-03T05:25:56;156940.38;;;6.74;98.49
7940;BME280;4015;48.888;9.226;2022-11-03T05:28:27;156956.94;;;6.81;98.47
7940;BME280;4015;48.888;9.226;2022-11-03T05:30:54;156959.47;;;6.82;98.27
7940;BME280;4015;48.888;9.226;2022-11-03T05:33:39;156962.00;;;6.83;98.08
7940;BME280;4015;48.888;9.226;2022-11-03T05:36:11;156962.00;;;6.83;98.06
7940;BME280;4015;48.888;9.226;2022-11-03T05:38:38;156956.94;;;6.81;98.06
7940;BME280;4015;48.888;9.226;2022-11-03T05:41:04;156965.81;;;6.84;98.00
7940;BME280;4015;48.888;9.226;2022-11-03T05:43:36;156970.94;;;6.86;98.03
7940;BME280;4015;48.888;9.226;2022-11-03T05:46:02;156984.97;;;6.92;98.05
7940;BME280;4015;48.888;9.226;2022-11-03T05:48:35;156997.69;;;6.97;97.82
7940;BME280;4015;48.888;9.226;2022-11-03T05:51:18;157006.63;;;7.00;97.69
7940;BME280;4015;48.888;9.226;2022-11-03T05:53:45;157009.16;;;7.01;97.69
7940;BME280;4015;48.888;9.226;2022-11-03T05:56:17;157014.22;;;7.03;97.50
7940;BME280;4015;48.888;9.226;2022-11-03T05:58:43;157009.16;;;7.01;97.76
7940;BME280;4015;48.888;9.226;2022-11-03T06:01:18;157009.16;;;7.01;98.06
7940;BME280;4015;48.888;9.226;2022-11-03T06:03:44;157001.53;;;6.98;97.83
7940;BME280;4015;48.888;9.226;2022-11-03T06:06:21;157000.25;;;6.98;97.98
7940;BME280;4015;48.888;9.226;2022-11-03T06:08:47;157009.16;;;7.01;98.02
7940;BME280;4015;48.888;9.226;2022-11-03T06:11:26;157015.56;;;7.04;97.79
7940;BME280;4015;48.888;9.226;2022-11-03T06:13:54;157001.53;;;6.98;98.08
7940;BME280;4015;48.888;9.226;2022-11-03T06:16:43;157015.56;;;7.04;97.80
7940;BME280;4015;48.888;9.226;2022-11-03T06:19:21;157027.00;;;7.09;97.75
7940;BME280;4015;48.888;9.226;2022-11-03T06:21:48;157024.44;;;7.08;97.44
7940;BME280;4015;48.888;9.226;2022-11-03T06:24:15;157024.44;;;7.08;97.22
7940;BME280;4015;48.888;9.226;2022-11-03T06:26:43;157015.56;;;7.04;97.23
7940;BME280;4015;48.888;9.226;2022-11-03T06:29:15;157009.16;;;7.01;97.75
7940;BME280;4015;48.888;9.226;2022-11-03T06:31:42;157032.13;;;7.11;97.75
7940;BME280;4015;48.888;9.226;2022-11-03T06:36:49;157046.09;;;7.16;97.51
7940;BME280;4015;48.888;9.226;2022-11-03T06:39:24;157088.19;;;7.33;96.97
7940;BME280;4015;48.888;9.226;2022-11-03T06:41:49;157111.16;;;7.42;96.95
7940;BME280;4015;48.888;9.226;2022-11-03T06:44:21;157136.59;;;7.52;96.99
7940;BME280;4015;48.888;9.226;2022-11-03T06:46:48;157146.81;;;7.56;96.79
7940;BME280;4015;48.888;9.226;2022-11-03T06:49:34;157190.19;;;7.74;96.90
7940;BME280;4015;48.888;9.226;2022-11-03T06:52:25;157248.81;;;7.97;96.13
7940;BME280;4015;48.888;9.226;2022-11-03T06:54:54;157274.31;;;8.07;95.52
7940;BME280;4015;48.888;9.226;2022-11-03T06:57:23;157313.84;;;8.23;95.59
7940;BME280;4015;48.888;9.226;2022-11-03T06:59:50;157297.25;;;8.17;94.96
7940;BME280;4015;48.888;9.226;2022-11-03T07:02:49;157261.56;;;8.02;95.59
7940;BME280;4015;48.888;9.226;2022-11-03T07:05:22;157209.28;;;7.81;96.97
7940;BME280;4015;48.888;9.226;2022-11-03T07:07:48;157228.41;;;7.89;97.09
7940;BME280;4015;48.888;9.226;2022-11-03T07:10:14;157250.06;;;7.98;96.91
7940;BME280;4015;48.888;9.226;2022-11-03T07:12:40;157233.50;;;7.91;96.85
7940;BME280;4015;48.888;9.226;2022-11-03T07:15:15;157298.59;;;8.17;96.67
7940;BME280;4015;48.888;9.226;2022-11-03T07:17:44;157418.50;;;8.65;95.17
7940;BME280;4015;48.888;9.226;2022-11-03T07:20:14;157451.66;;;8.78;93.98
7940;BME280;4015;48.888;9.226;2022-11-03T07:22:41;157422.31;;;8.67;93.92
7940;BME280;4015;48.888;9.226;2022-11-03T07:25:13;157442.75;;;8.75;93.62
7940;BME280;4015;48.888;9.226;2022-11-03T07:27:40;157460.63;;;8.82;93.71
7940;BME280;4015;48.888;9.226;2022-11-03T07:32:45;157533.31;;;9.11;92.70
7940;BME280;4015;48.888;9.226;2022-11-03T07:37:43;157672.47;;;9.66;90.76
7940;BME280;4015;48.888;9.226;2022-11-03T07:40:27;157812.91;;;10.22;88.57
7940;BME280;4015;48.888;9.226;2022-11-03T07:43:01;157820.66;;;10.25;87.02
7940;BME280;4015;48.888;9.226;2022-11-03T07:45:47;157963.72;;;10.83;86.54
7940;BME280;4015;48.888;9.226;2022-11-03T07:48:41;157999.47;;;10.97;85.00
7940;BME280;4015;48.888;9.226;2022-11-03T07:51:27;157985.41;;;10.91;85.48
7940;BME280;4015;48.888;9.226;2022-11-03T07:56:32;157987.97;;;10.92;85.52
7940;BME280;4015;48.888;9.226;2022-11-03T08:01:42;158000.75;;;10.97;85.95
7940;BME280;4015;48.888;9.226;2022-11-03T08:04:11;157968.81;;;10.85;84.68
7940;BME280;4015;48.888;9.226;2022-11-03T08:06:38;157984.13;;;10.91;85.60
7940;BME280;4015;48.888;9.226;2022-11-03T08:09:03;158019.91;;;11.05;86.20
7940;BME280;4015;48.888;9.226;2022-11-03T08:11:29;158021.16;;;11.05;85.11
7940;BME280;4015;48.888;9.226;2022-11-03T08:13:54;157953.47;;;10.78;85.29
7940;BME280;4015;48.888;9.226;2022-11-03T08:16:20;157993.09;;;10.94;86.15
7940;BME280;4015;48.888;9.226;2022-11-03T08:18:46;158021.16;;;11.05;85.02
7940;BME280;4015;48.888;9.226;2022-11-03T08:21:11;158026.31;;;11.07;84.88
7940;BME280;4015;48.888;9.226;2022-11-03T08:23:37;158008.44;;;11.00;85.45
7940;BME280;4015;48.888;9.226;2022-11-03T08:26:03;158007.13;;;11.00;86.09
7940;BME280;4015;48.888;9.226;2022-11-03T08:28:29;158065.91;;;11.23;85.67
7940;BME280;4015;48.888;9.226;2022-11-03T08:30:54;158129.81;;;11.49;85.24
7940;BME280;4015;48.888;9.226;2022-11-03T08:33:19;158103.00;;;11.38;85.09
7940;BME280;4015;48.888;9.226;2022-11-03T08:35:45;158214.25;;;11.82;84.22
7940;BME280;4015;48.888;9.226;2022-11-03T08:38:10;158206.50;;;11.79;82.34
7940;BME280;4015;48.888;9.226;2022-11-03T08:40:36;158196.25;;;11.75;82.72
7940;BME280;4015;48.888;9.226;2022-11-03T08:43:01;158200.13;;;11.77;82.19
7940;BME280;4015;48.888;9.226;2022-11-03T08:45:30;158215.53;;;11.83;82.12
7940;BME280;4015;48.888;9.226;2022-11-03T08:47:56;158270.47;;;12.05;82.67
7940;BME280;4015;48.888;9.226;2022-11-03T08:50:22;158228.31;;;11.88;81.59
7940;BME280;4015;48.888;9.226;2022-11-03T08:52:48;158270.47;;;12.05;82.28
7940;BME280;4015;48.888;9.226;2022-11-03T08:55:13;158274.31;;;12.06;81.13
7940;BME280;4015;48.888;9.226;2022-11-03T08:57:39;158417.56;;;12.63;80.79
7940;BME280;4015;48.888;9.226;2022-11-03T09:00:04;158517.31;;;13.03;80.19
7940;BME280;4015;48.888;9.226;2022-11-03T09:02:30;158576.25;;;13.27;79.61
7940;BME280;4015;48.888;9.226;2022-11-03T09:04:56;158448.22;;;12.76;78.67
7940;BME280;4015;48.888;9.226;2022-11-03T09:07:22;158494.28;;;12.94;79.72
7940;BME280;4015;48.888;9.226;2022-11-03T09:09:47;158576.25;;;13.27;78.40
7940;BME280;4015;48.888;9.226;2022-11-03T09:12:12;158522.44;;;13.05;78.46
7940;BME280;4015;48.888;9.226;2022-11-03T09:14:38;158541.63;;;13.13;77.33
7940;BME280;4015;48.888;9.226;2022-11-03T09:17:03;158656.88;;;13.59;77.91
7940;BME280;4015;48.888;9.226;2022-11-03T09:19:28;158627.41;;;13.47;77.95
7940;BME280;4015;48.888;9.226;2022-11-03T09:21:54;158669.63;;;13.64;77.38
7940;BME280;4015;48.888;9.226;2022-11-03T09:24:19;158687.59;;;13.71;77.91
7940;BME280;4015;48.888;9.226;2022-11-03T09:26:45;158727.22;;;13.87;76.88
7940;BME280;4015;48.888;9.226;2022-11-03T09:29:10;158772.03;;;14.04;75.94
7940;BME280;4015;48.888;9.226;2022-11-03T09:31:35;158764.34;;;14.01;75.38
7940;BME280;4015;48.888;9.226;2022-11-03T09:34:00;158786.13;;;14.10;74.54
7940;BME280;4015;48.888;9.226;2022-11-03T09:36:26;158793.78;;;14.13;75.47
7940;BME280;4015;48.888;9.226;2022-11-03T09:38:51;158814.31;;;14.21;73.55
7940;BME280;4015;48.888;9.226;2022-11-03T09:41:16;158823.25;;;14.25;74.66
7940;BME280;4015;48.888;9.226;2022-11-03T09:43:43;158793.78;;;14.13;75.37
7940;BME280;4015;48.888;9.226;2022-11-03T09:46:10;158878.38;;;14.47;76.66
7940;BME280;4015;48.888;9.226;2022-11-03T09:48:36;158891.19;;;14.52;74.07
7940;BME280;4015;48.888;9.226;2022-11-03T09:51:02;158925.75;;;14.66;73.31
7940;BME280;4015;48.888;9.226;2022-11-03T09:53:28;158952.59;;;14.76;72.46
7940;BME280;4015;48.888;9.226;2022-11-03T09:55:54;159000.00;;;14.95;71.92
7940;BME280;4015;48.888;9.226;2022-11-03T09:58:20;159060.22;;;15.19;70.60
7940;BME280;4015;48.888;9.226;2022-11-03T10:00:45;159134.53;;;15.49;69.54
7940;BME280;4015;48.888;9.226;2022-11-03T10:03:12;159228.13;;;15.86;70.29
7940;BME280;4015;48.888;9.226;2022-11-03T10:05:38;159281.94;;;16.07;69.11
7940;BME280;4015;48.888;9.226;2022-11-03T10:08:10;159192.25;;;15.72;68.84
7940;BME280;4015;48.888;9.226;2022-11-03T10:10:36;159269.09;;;16.02;70.17
7940;BME280;4015;48.888;9.226;2022-11-03T10:13:04;159161.44;;;15.59;69.26
7940;BME280;4015;48.888;9.226;2022-11-03T10:15:33;159061.50;;;15.20;70.00
7940;BME280;4015;48.888;9.226;2022-11-03T10:17:59;158979.50;;;14.87;71.19
7940;BME280;4015;48.888;9.226;2022-11-03T10:20:26;159015.38;;;15.01;71.00
7940;BME280;4015;48.888;9.226;2022-11-03T10:22:53;158959.03;;;14.79;72.67
7940;BME280;4015;48.888;9.226;2022-11-03T10:25:39;158907.81;;;14.59;74.15
7940;BME280;4015;48.888;9.226;2022-11-03T10:28:19;158846.31;;;14.34;73.19
7940;BME280;4015;48.888;9.226;2022-11-03T10:30:55;158855.25;;;14.38;74.45
7940;BME280;4015;48.888;9.226;2022-11-03T10:33:26;158928.31;;;14.67;73.92
7940;BME280;4015;48.888;9.226;2022-11-03T10:35:53;158888.59;;;14.51;73.40
7940;BME280;4015;48.888;9.226;2022-11-03T10:40:51;158862.94;;;14.41;74.39
7940;BME280;4015;48.888;9.226;2022-11-03T10:43:18;158884.75;;;14.49;74.41
7940;BME280;4015;48.888;9.226;2022-11-03T10:45:44;158862.94;;;14.41;75.07
7940;BME280;4015;48.888;9.226;2022-11-03T10:48:10;158937.25;;;14.70;76.21
7940;BME280;4015;48.888;9.226;2022-11-03T10:50:38;158896.28;;;14.54;74.15
7940;BME280;4015;48.888;9.226;2022-11-03T10:53:05;158877.09;;;14.46;74.50
7940;BME280;4015;48.888;9.226;2022-11-03T10:55:38;158888.59;;;14.51;74.36
7940;BME280;4015;48.888;9.226;2022-11-03T10:58:04;158889.84;;;14.51;76.45
7940;BME280;4015;48.888;9.226;2022-11-03T11:00:30;158889.84;;;14.51;74.68
7940;BME280;4015;48.888;9.226;2022-11-03T11:02:59;158929.59;;;14.67;74.71
7940;BME280;4015;48.888;9.226;2022-11-03T11:05:25;158976.97;;;14.86;74.11
7940;BME280;4015;48.888;9.226;2022-11-03T11:07:51;158932.13;;;14.68;73.46
7940;BME280;4015;48.888;9.226;2022-11-03T11:10:25;159000.00;;;14.95;74.90
7940;BME280;4015;48.888;9.226;2022-11-03T11:15:52;158997.44;;;14.94;73.96
7940;BME280;4015;48.888;9.226;2022-11-03T11:20:52;158956.50;;;14.78;74.23
7940;BME280;4015;48.888;9.226;2022-11-03T11:28:37;158874.44;;;14.45;75.89
7940;BME280;4015;48.888;9.226;2022-11-03T11:33:46;158875.78;;;14.46;76.09
7940;BME280;4015;48.888;9.226;2022-11-03T11:36:20;158898.84;;;14.55;76.12
7940;BME280;4015;48.888;9.226;2022-11-03T11:41:16;158889.84;;;14.51;76.71
7940;BME280;4015;48.888;9.226;2022-11-03T11:43:42;158941.13;;;14.72;77.51
7940;BME280;4015;48.888;9.226;2022-11-03T11:51:34;159000.00;;;14.95;74.72
7940;BME280;4015;48.888;9.226;2022-11-03T11:54:04;158982.06;;;14.88;73.83
7940;BME280;4015;48.888;9.226;2022-11-03T11:56:30;159014.09;;;15.01;75.02
7940;BME280;4015;48.888;9.226;2022-11-03T11:58:56;159039.72;;;15.11;74.16
7940;BME280;4015;48.888;9.226;2022-11-03T12:01:29;159021.81;;;15.04;73.90
7940;BME280;4015;48.888;9.226;2022-11-03T12:03:59;159037.19;;;15.10;74.00
7940;BME280;4015;48.888;9.226;2022-11-03T12:06:36;159032.00;;;15.08;73.25
7940;BME280;4015;48.888;9.226;2022-11-03T12:11:50;158983.34;;;14.89;74.33
7940;BME280;4015;48.888;9.226;2022-11-03T12:14:24;158970.59;;;14.83;74.25
7940;BME280;4015;48.888;9.226;2022-11-03T12:16:50;158943.66;;;14.73;74.19
7940;BME280;4015;48.888;9.226;2022-11-03T12:19:38;158953.88;;;14.77;75.29
7940;BME280;4015;48.888;9.226;2022-11-03T12:22:06;158942.41;;;14.72;73.66
7940;BME280;4015;48.888;9.226;2022-11-03T12:24:50;158970.59;;;14.83;75.42
7940;BME280;4015;48.888;9.226;2022-11-03T12:27:38;158959.03;;;14.79;75.28
7940;BME280;4015;48.888;9.226;2022-11-03T12:30:15;158964.16;;;14.81;75.72
7940;BME280;4015;48.888;9.226;2022-11-03T12:32:41;158988.50;;;14.91;74.90
7940;BME280;4015;48.888;9.226;2022-11-03T12:35:08;158970.59;;;14.83;74.67
7940;BME280;4015;48.888;9.226;2022-11-03T12:37:33;158930.84;;;14.68;74.71
7940;BME280;4015;48.888;9.226;2022-11-03T12:39:58;158993.63;;;14.93;74.45
7940;BME280;4015;48.888;9.226;2022-11-03T12:42:24;158980.78;;;14.88;73.54
7940;BME280;4015;48.888;9.226;2022-11-03T12:44:50;158915.50;;;14.62;74.47
7940;BME280;4015;48.888;9.226;2022-11-03T12:47:15;158928.31;;;14.67;74.32
7940;BME280;4015;48.888;9.226;2022-11-03T12:49:41;158901.41;;;14.56;74.14
7940;BME280;4015;48.888;9.226;2022-11-03T12:52:06;158919.31;;;14.63;73.74
7940;BME280;4015;48.888;9.226;2022-11-03T12:54:32;158878.38;;;14.47;75.65
7940;BME280;4015;48.888;9.226;2022-11-03T12:56:58;158855.25;;;14.38;76.74
7940;BME280;4015;48.888;9.226;2022-11-03T12:59:23;158828.41;;;14.27;77.79
7940;BME280;4015;48.888;9.226;2022-11-03T13:01:49;158814.31;;;14.21;76.69
7940;BME280;4015;48.888;9.226;2022-11-03T13:04:14;158804.03;;;14.17;76.05
7940;BME280;4015;48.888;9.226;2022-11-03T13:06:39;158820.69;;;14.24;75.89
7940;BME280;4015;48.888;9.226;2022-11-03T13:09:05;158765.66;;;14.02;76.57
7940;BME280;4015;48.888;9.226;2022-11-03T13:11:30;158742.59;;;13.93;76.63
7940;BME280;4015;48.888;9.226;2022-11-03T13:14:14;158723.41;;;13.85;77.96
7940;BME280;4015;48.888;9.226;2022-11-03T13:16:39;158742.59;;;13.93;78.34
7940;BME280;4015;48.888;9.226;2022-11-03T13:19:05;158763.06;;;14.01;77.73
7940;BME280;4015;48.888;9.226;2022-11-03T13:21:30;158751.56;;;13.96;77.16
7940;BME280;4015;48.888;9.226;2022-11-03T13:23:55;158756.69;;;13.98;76.28
7940;BME280;4015;48.888;9.226;2022-11-03T13:26:20;158736.22;;;13.90;76.30
7940;BME280;4015;48.888;9.226;2022-11-03T13:28:46;158723.41;;;13.85;76.88
7940;BME280;4015;48.888;9.226;2022-11-03T13:31:11;158714.41;;;13.82;78.01
7940;BME280;4015;48.888;9.226;2022-11-03T13:33:37;158711.88;;;13.81;78.29
7940;BME280;4015;48.888;9.226;2022-11-03T13:36:02;158711.88;;;13.81;78.34
7940;BME280;4015;48.888;9.226;2022-11-03T13:38:28;158766.94;;;14.02;79.47
7940;BME280;4015;48.888;9.226;2022-11-03T13:40:53;158777.16;;;14.07;78.86
7940;BME280;4015;48.888;9.226;2022-11-03T13:43:18;158813.03;;;14.21;78.53
7940;BME280;4015;48.888;9.226;2022-11-03T13:45:45;158810.44;;;14.20;78.30
7940;BME280;4015;48.888;9.226;2022-11-03T13:48:10;158813.03;;;14.21;78.91
7940;BME280;4015;48.888;9.226;2022-11-03T13:50:36;158798.94;;;14.15;79.12
7940;BME280;4015;48.888;9.226;2022-11-03T13:53:01;158781.03;;;14.08;78.39
7940;BME280;4015;48.888;9.226;2022-11-03T13:55:26;158770.75;;;14.04;78.83
7940;BME280;4015;48.888;9.226;2022-11-03T13:57:52;158786.13;;;14.10;78.35
7940;BME280;4015;48.888;9.226;2022-11-03T14:00:17;158779.69;;;14.08;79.47
7940;BME280;4015;48.888;9.226;2022-11-03T14:02:43;158807.88;;;14.19;79.81
7940;BME280;4015;48.888;9.226;2022-11-03T14:05:09;158798.94;;;14.15;80.18
7940;BME280;4015;48.888;9.226;2022-11-03T14:07:35;158801.50;;;14.16;79.63
7940;BME280;4015;48.888;9.226;2022-11-03T14:10:00;158784.84;;;14.10;80.14
7940;BME280;4015;48.888;9.226;2022-11-03T14:12:25;158765.66;;;14.02;80.80
7940;BME280;4015;48.888;9.226;2022-11-03T14:14:59;158749.03;;;13.95;81.30
7940;BME280;4015;48.888;9.226;2022-11-03T14:17:25;158747.69;;;13.95;81.90
7940;BME280;4015;48.888;9.226;2022-11-03T14:19:51;158743.88;;;13.93;81.58
7940;BME280;4015;48.888;9.226;2022-11-03T14:22:17;158746.41;;;13.94;82.27
7940;BME280;4015;48.888;9.226;2022-11-03T14:24:43;158741.31;;;13.92;82.36
7940;BME280;4015;48.888;9.226;2022-11-03T14:27:08;158725.97;;;13.86;83.30
7940;BME280;4015;48.888;9.226;2022-11-03T14:29:34;158729.78;;;13.88;80.97
7940;BME280;4015;48.888;9.226;2022-11-03T14:31:59;158724.69;;;13.86;81.87